Time;durP1;ratioP1;P1;durP2;ratioP2;P2;SDS_P1;SDS_P2;PMS_P1;PMS_P2;Temp;Humidity;BMP_temperature;BMP_pressure;BME280_temperature;BME280_humidity;BME280_pressure;Samples;Min_cycle;Max_cycle;Signal;HPM_P1;HPM_P2
2023/07/24 00:02:09;;;;;;;7.80;5.00;;;;;;;;;;109878;1250;58901;-79
2023/07/24 00:04:36;;;;;;;7.20;4.10;;;;;;;;;;109867;1249;58835;-79
2023/07/24 00:07:02;;;;;;;11.80;5.50;;;;;;;;;;109878;1249;59081;-79
2023/07/24 00:09:29;;;;;;;5.50;3.90;;;;;;;;;;109907;1249;58996;-79
2023/07/24 00:11:55;;;;;;;11.80;7.20;;;;;;;;;;109827;1249;58881;-79
2023/07/24 00:14:21;;;;;;;7.70;5.10;;;;;;;;;;109856;1249;58945;-79
2023/07/24 00:16:48;;;;;;;7.90;4.80;;;;;;;;;;109845;1249;58868;-79
2023/07/24 00:19:14;;;;;;;7.80;4.50;;;;;;;;;;108258;1249;61772;-79
2023/07/24 00:21:40;;;;;;;6.10;4.10;;;;;;;;;;106858;1249;61349;-78
2023/07/24 00:24:07;;;;;;;9.30;4.50;;;;;;;;;;106879;1254;61218;-78
2023/07/24 00:26:33;;;;;;;7.80;4.30;;;;;;;;;;106835;1249;61246;-78
2023/07/24 00:29:00;;;;;;;8.90;4.40;;;;;;;;;;106845;1249;61249;-78
2023/07/24 00:31:26;;;;;;;5.80;3.90;;;;;;;;;;106847;1253;61363;-78
2023/07/24 00:33:53;;;;;;;6.40;3.80;;;;;;;;;;106884;1250;61394;-78
2023/07/24 00:36:19;;;;;;;6.60;4.00;;;;;;;;;;106814;1251;61377;-78
2023/07/24 00:38:46;;;;;;;6.30;3.70;;;;;;;;;;106837;1250;61333;-78
2023/07/24 00:41:12;;;;;;;6.10;3.70;;;;;;;;;;106877;1254;61420;-79
2023/07/24 00:43:39;;;;;;;7.30;4.00;;;;;;;;;;108158;1250;61248;-79
2023/07/24 00:46:05;;;;;;;7.70;3.90;;;;;;;;;;109780;1249;59103;-80
2023/07/24 00:48:31;;;;;;;8.80;3.90;;;;;;;;;;108377;1250;61246;-79
2023/07/24 00:50:58;;;;;;;6.10;4.10;;;;;;;;;;106781;1254;61209;-79
2023/07/24 00:53:24;;;;;;;5.80;3.80;;;;;;;;;;106813;1253;61374;-78
2023/07/24 00:55:51;;;;;;;8.40;4.60;;;;;;;;;;106783;1250;61589;-79
2023/07/24 00:58:17;;;;;;;9.40;3.60;;;;;;;;;;106833;1249;61317;-78
2023/07/24 01:00:44;;;;;;;7.20;4.30;;;;;;;;;;106886;1253;61363;-78
2023/07/24 01:03:12;;;;;;;11.30;4.40;;;;;;;;;;106809;1250;61127;-79
2023/07/24 01:05:38;;;;;;;9.50;3.70;;;;;;;;;;106828;1250;61569;-78
2023/07/24 01:08:05;;;;;;;5.60;3.90;;;;;;;;;;106841;1253;61255;-78
2023/07/24 01:10:31;;;;;;;11.50;5.30;;;;;;;;;;106899;1249;61121;-78
2023/07/24 01:12:59;;;;;;;9.30;4.20;;;;;;;;;;106843;1254;61370;-79
2023/07/24 01:15:29;;;;;;;8.30;4.50;;;;;;;;;;109408;1249;59049;-79
2023/07/24 01:18:03;;;;;;;7.00;4.10;;;;;;;;;;109874;1249;58933;-79
2023/07/24 01:20:30;;;;;;;8.20;4.60;;;;;;;;;;109892;1249;60847;-79
2023/07/24 01:22:56;;;;;;;7.20;4.70;;;;;;;;;;109903;1249;58957;-79
2023/07/24 01:25:25;;;;;;;7.60;5.30;;;;;;;;;;109868;1249;58845;-79
2023/07/24 01:27:51;;;;;;;;;;;;;;;;;;109902;1249;59082;-79
2023/07/24 01:30:18;;;;;;;8.00;4.90;;;;;;;;;;109873;1253;59082;-79
2023/07/24 01:32:44;;;;;;;10.10;4.90;;;;;;;;;;109909;1249;58869;-80
2023/07/24 01:35:11;;;;;;;8.50;5.10;;;;;;;;;;109896;1249;59038;-79
2023/07/24 01:37:40;;;;;;;15.90;5.70;;;;;;;;;;108591;1254;61295;-79
2023/07/24 01:40:07;;;;;;;9.40;5.00;;;;;;;;;;109029;1249;59466;-78
2023/07/24 01:42:34;;;;;;;8.80;5.20;;;;;;;;;;109811;1251;59008;-79
2023/07/24 01:45:00;;;;;;;10.90;4.90;;;;;;;;;;109845;1250;59977;-79
2023/07/24 01:47:27;;;;;;;6.70;4.50;;;;;;;;;;109862;1249;59022;-79
2023/07/24 01:49:53;;;;;;;9.50;5.00;;;;;;;;;;109881;1249;58933;-79
2023/07/24 01:52:20;;;;;;;9.00;4.90;;;;;;;;;;109885;1250;59072;-79
2023/07/24 01:54:46;;;;;;;7.20;5.00;;;;;;;;;;109888;1249;59082;-79
2023/07/24 01:57:12;;;;;;;13.70;5.10;;;;;;;;;;108949;1252;61202;-79
2023/07/24 01:59:39;;;;;;;6.20;4.10;;;;;;;;;;107561;1250;61240;-79
2023/07/24 02:02:05;;;;;;;7.10;4.60;;;;;;;;;;107174;1250;61238;-78
2023/07/24 02:04:31;;;;;;;12.20;4.80;;;;;;;;;;106929;1253;61823;-79
2023/07/24 02:06:58;;;;;;;7.50;5.10;;;;;;;;;;106888;1250;61339;-78
2023/07/24 02:09:24;;;;;;;7.40;4.80;;;;;;;;;;106889;1253;61270;-78
2023/07/24 02:11:51;;;;;;;12.90;5.80;;;;;;;;;;106896;1249;61313;-78
2023/07/24 02:14:17;;;;;;;7.90;4.50;;;;;;;;;;106949;1253;61376;-78
2023/07/24 02:16:44;;;;;;;7.30;4.60;;;;;;;;;;106817;1251;61219;-78
2023/07/24 02:19:10;;;;;;;6.70;4.90;;;;;;;;;;106878;1249;61333;-79
2023/07/24 02:21:37;;;;;;;6.20;4.30;;;;;;;;;;109905;1249;58944;-79
2023/07/24 02:24:03;;;;;;;7.20;4.00;;;;;;;;;;109893;1249;58906;-79
2023/07/24 02:26:30;;;;;;;5.90;3.60;;;;;;;;;;109907;1249;58908;-78
2023/07/24 02:28:56;;;;;;;5.30;3.80;;;;;;;;;;109885;1250;58927;-78
2023/07/24 02:31:22;;;;;;;5.50;3.90;;;;;;;;;;109881;1249;58883;-79
2023/07/24 02:33:50;;;;;;;8.60;4.10;;;;;;;;;;109882;1250;58999;-79
2023/07/24 02:36:16;;;;;;;6.40;3.90;;;;;;;;;;109874;1249;58745;-78
2023/07/24 02:38:42;;;;;;;6.40;4.50;;;;;;;;;;109866;1249;59047;-79
2023/07/24 02:41:09;;;;;;;7.40;4.20;;;;;;;;;;109902;1249;58908;-79
2023/07/24 02:43:35;;;;;;;6.40;4.10;;;;;;;;;;107855;1253;61356;-79
2023/07/24 02:46:02;;;;;;;7.70;5.10;;;;;;;;;;106887;1249;61301;-78
2023/07/24 02:48:28;;;;;;;16.00;7.40;;;;;;;;;;106895;1250;61349;-79
2023/07/24 02:50:55;;;;;;;9.00;4.90;;;;;;;;;;106867;1250;61384;-78
2023/07/24 02:53:21;;;;;;;9.80;5.90;;;;;;;;;;106847;1249;61221;-79
2023/07/24 02:55:47;;;;;;;14.80;6.40;;;;;;;;;;108288;1249;61208;-79
2023/07/24 02:58:14;;;;;;;12.60;7.80;;;;;;;;;;109884;1249;59043;-79
2023/07/24 03:00:40;;;;;;;13.10;7.50;;;;;;;;;;109828;1249;59141;-78
2023/07/24 03:03:06;;;;;;;9.00;5.40;;;;;;;;;;109902;1249;59311;-78
2023/07/24 03:05:36;;;;;;;10.60;6.00;;;;;;;;;;109888;1250;58818;-79
2023/07/24 03:08:02;;;;;;;10.40;6.50;;;;;;;;;;109904;1249;59263;-79
2023/07/24 03:10:29;;;;;;;9.90;5.90;;;;;;;;;;109913;1249;59876;-79
2023/07/24 03:12:55;;;;;;;10.40;5.30;;;;;;;;;;109886;1250;58837;-79
2023/07/24 03:15:22;;;;;;;32.50;19.50;;;;;;;;;;109897;1250;59116;-79
2023/07/24 03:17:48;;;;;;;14.70;9.20;;;;;;;;;;109869;1249;59049;-80
2023/07/24 03:20:15;;;;;;;18.20;9.50;;;;;;;;;;109888;1249;58998;-79
2023/07/24 03:22:42;;;;;;;24.70;8.40;;;;;;;;;;109894;1249;61536;-79
2023/07/24 03:25:08;;;;;;;10.20;6.10;;;;;;;;;;109909;1249;59171;-79
2023/07/24 03:27:35;;;;;;;9.00;5.30;;;;;;;;;;109501;1249;61206;-79
2023/07/24 03:30:01;;;;;;;13.00;7.30;;;;;;;;;;108747;1249;61196;-79
2023/07/24 03:32:27;;;;;;;10.00;6.00;;;;;;;;;;109946;1250;59141;-79
2023/07/24 03:34:54;;;;;;;10.40;6.50;;;;;;;;;;109903;1249;58911;-79
2023/07/24 03:37:20;;;;;;;10.10;6.40;;;;;;;;;;109891;1249;58836;-79
2023/07/24 03:39:47;;;;;;;14.90;7.40;;;;;;;;;;109898;1249;58938;-79
2023/07/24 03:42:14;;;;;;;9.40;6.70;;;;;;;;;;109821;1249;58913;-79
2023/07/24 03:44:40;;;;;;;11.50;6.60;;;;;;;;;;109788;1249;58826;-79
2023/07/24 03:47:07;;;;;;;18.10;7.20;;;;;;;;;;109891;1249;59246;-79
2023/07/24 03:49:33;;;;;;;7.80;5.30;;;;;;;;;;109947;1249;58944;-79
2023/07/24 03:52:00;;;;;;;10.70;6.10;;;;;;;;;;109925;1249;58929;-79
2023/07/24 03:54:26;;;;;;;12.40;5.90;;;;;;;;;;109894;1249;59099;-79
2023/07/24 03:56:53;;;;;;;9.80;6.40;;;;;;;;;;109922;1249;59180;-79
2023/07/24 03:59:19;;;;;;;8.60;5.80;;;;;;;;;;109901;1250;59171;-79
2023/07/24 04:01:45;;;;;;;9.70;5.30;;;;;;;;;;109889;1250;58856;-79
2023/07/24 04:04:12;;;;;;;8.80;5.40;;;;;;;;;;109911;1249;59014;-79
2023/07/24 04:06:38;;;;;;;9.40;7.00;;;;;;;;;;109819;1251;59587;-79
2023/07/24 04:09:05;;;;;;;12.80;6.40;;;;;;;;;;109290;1256;59121;-78
2023/07/24 04:11:31;;;;;;;13.70;7.80;;;;;;;;;;106848;1254;61250;-78
2023/07/24 04:13:58;;;;;;;17.80;11.00;;;;;;;;;;106873;1249;61235;-79
2023/07/24 04:16:24;;;;;;;11.50;6.40;;;;;;;;;;106873;1249;61347;-79
2023/07/24 04:18:50;;;;;;;9.30;5.60;;;;;;;;;;106847;1249;61256;-78
2023/07/24 04:21:17;;;;;;;10.60;6.40;;;;;;;;;;106836;1254;61262;-78
2023/07/24 04:23:43;;;;;;;9.30;6.40;;;;;;;;;;106896;1249;61321;-78
2023/07/24 04:26:09;;;;;;;9.20;5.70;;;;;;;;;;106849;1253;61326;-79
2023/07/24 04:28:36;;;;;;;8.00;5.80;;;;;;;;;;106877;1249;62053;-78
2023/07/24 04:31:02;;;;;;;30.50;12.10;;;;;;;;;;106816;1256;61253;-78
2023/07/24 04:33:28;;;;;;;98.50;33.50;;;;;;;;;;106819;1250;61257;-78
2023/07/24 04:35:55;;;;;;;82.90;30.10;;;;;;;;;;106867;1249;59961;-78
2023/07/24 04:38:22;;;;;;;49.30;18.80;;;;;;;;;;106771;1255;61227;-79
2023/07/24 04:40:48;;;;;;;30.20;13.70;;;;;;;;;;106838;1254;61290;-78
2023/07/24 04:43:14;;;;;;;27.00;12.40;;;;;;;;;;106854;1254;61345;-78
2023/07/24 04:45:41;;;;;;;31.10;14.80;;;;;;;;;;106862;1249;61248;-78
2023/07/24 04:48:07;;;;;;;41.40;17.20;;;;;;;;;;106865;1249;61415;-78
2023/07/24 04:50:33;;;;;;;42.80;16.90;;;;;;;;;;106908;1253;61264;-79
2023/07/24 04:53:00;;;;;;;20.30;10.40;;;;;;;;;;106810;1249;61339;-79
2023/07/24 04:55:26;;;;;;;18.40;9.30;;;;;;;;;;106905;1253;61366;-79
2023/07/24 04:57:53;;;;;;;18.80;10.30;;;;;;;;;;106966;1250;61126;-79
2023/07/24 05:00:19;;;;;;;16.70;8.70;;;;;;;;;;108407;1249;61373;-80
2023/07/24 05:02:45;;;;;;;10.40;6.00;;;;;;;;;;106893;1256;61242;-78
2023/07/24 05:05:12;;;;;;;13.90;8.80;;;;;;;;;;107457;1252;61381;-78
2023/07/24 05:07:38;;;;;;;17.60;8.40;;;;;;;;;;106866;1249;61220;-79
2023/07/24 05:10:05;;;;;;;21.80;12.80;;;;;;;;;;106862;1250;61359;-78
2023/07/24 05:12:31;;;;;;;19.70;9.80;;;;;;;;;;109924;1249;59166;-79
2023/07/24 05:14:57;;;;;;;15.70;11.50;;;;;;;;;;109923;1249;58938;-78
2023/07/24 05:17:24;;;;;;;13.50;7.50;;;;;;;;;;108260;1255;61266;-77
2023/07/24 05:19:50;;;;;;;9.00;6.00;;;;;;;;;;106756;1250;61408;-78
2023/07/24 05:22:16;;;;;;;13.40;7.90;;;;;;;;;;106846;1250;61335;-77
2023/07/24 05:24:43;;;;;;;11.60;7.10;;;;;;;;;;106858;1249;61358;-78
2023/07/24 05:27:09;;;;;;;11.50;6.50;;;;;;;;;;106851;1250;61347;-77
2023/07/24 05:29:36;;;;;;;9.30;5.60;;;;;;;;;;106840;1250;61303;-79
2023/07/24 05:32:02;;;;;;;12.10;6.70;;;;;;;;;;106896;1254;61372;-78
2023/07/24 05:34:29;;;;;;;10.20;5.80;;;;;;;;;;106931;1251;61324;-78
2023/07/24 05:36:55;;;;;;;10.40;6.30;;;;;;;;;;106924;1250;61263;-78
2023/07/24 05:39:21;;;;;;;10.70;6.30;;;;;;;;;;106901;1249;61251;-77
2023/07/24 05:41:48;;;;;;;11.90;5.20;;;;;;;;;;106846;1252;61251;-79
2023/07/24 05:44:15;;;;;;;11.30;6.60;;;;;;;;;;106822;1255;62008;-78
2023/07/24 05:46:41;;;;;;;9.80;5.90;;;;;;;;;;106892;1250;61337;-78
2023/07/24 05:49:07;;;;;;;10.50;5.20;;;;;;;;;;106918;1254;61341;-79
2023/07/24 05:51:34;;;;;;;8.00;5.40;;;;;;;;;;106898;1249;61378;-78
2023/07/24 05:54:01;;;;;;;11.30;7.30;;;;;;;;;;106853;1251;61361;-79
2023/07/24 05:56:28;;;;;;;10.50;6.10;;;;;;;;;;106941;1250;61462;-78
2023/07/24 05:58:54;;;;;;;7.20;5.50;;;;;;;;;;106923;1253;61352;-78
2023/07/24 06:01:20;;;;;;;9.60;6.10;;;;;;;;;;106864;1250;60355;-78
2023/07/24 06:03:47;;;;;;;14.70;6.00;;;;;;;;;;107076;1250;61235;-79
2023/07/24 06:06:14;;;;;;;7.60;5.60;;;;;;;;;;106967;1250;61336;-79
2023/07/24 06:08:40;;;;;;;10.10;4.80;;;;;;;;;;106788;1250;61238;-78
2023/07/24 06:11:07;;;;;;;10.00;5.30;;;;;;;;;;106900;1250;61218;-77
2023/07/24 06:13:33;;;;;;;8.20;5.20;;;;;;;;;;106932;1254;61346;-77
2023/07/24 06:16:00;;;;;;;8.90;5.80;;;;;;;;;;106923;1256;61214;-79
2023/07/24 06:18:27;;;;;;;7.40;4.90;;;;;;;;;;106888;1249;61346;-78
2023/07/24 06:20:53;;;;;;;6.70;4.80;;;;;;;;;;106882;1250;61364;-78
2023/07/24 06:23:20;;;;;;;8.80;5.30;;;;;;;;;;106883;1251;61352;-78
2023/07/24 06:25:46;;;;;;;8.60;5.20;;;;;;;;;;106902;1250;61117;-78
2023/07/24 06:28:12;;;;;;;8.50;5.40;;;;;;;;;;106946;1254;61358;-79
2023/07/24 06:30:39;;;;;;;9.30;5.70;;;;;;;;;;106911;1250;61640;-80
2023/07/24 06:33:05;;;;;;;7.40;5.50;;;;;;;;;;106948;1250;61340;-79
2023/07/24 06:35:31;;;;;;;7.90;5.10;;;;;;;;;;106975;1255;61331;-79
2023/07/24 06:37:58;;;;;;;7.40;5.30;;;;;;;;;;107209;1250;61254;-78
2023/07/24 06:40:24;;;;;;;9.10;4.60;;;;;;;;;;106976;1249;61972;-78
2023/07/24 06:42:50;;;;;;;6.70;5.40;;;;;;;;;;107031;1252;61236;-79
2023/07/24 06:45:17;;;;;;;11.80;5.10;;;;;;;;;;106989;1250;61326;-79
2023/07/24 06:47:43;;;;;;;8.30;6.00;;;;;;;;;;107054;1254;61253;-79
2023/07/24 06:50:10;;;;;;;7.20;5.70;;;;;;;;;;106947;1254;61254;-79
2023/07/24 06:52:36;;;;;;;8.00;5.20;;;;;;;;;;108549;1249;61323;-78
2023/07/24 06:55:03;;;;;;;6.70;5.40;;;;;;;;;;106898;1254;61264;-78
2023/07/24 06:57:29;;;;;;;6.70;4.80;;;;;;;;;;107017;1254;61326;-79
2023/07/24 06:59:55;;;;;;;8.00;5.50;;;;;;;;;;106910;1249;61378;-82
2023/07/24 07:02:22;;;;;;;8.20;5.60;;;;;;;;;;107272;1250;61232;-79
2023/07/24 07:04:48;;;;;;;11.90;6.20;;;;;;;;;;107950;1249;61259;-80
2023/07/24 07:07:15;;;;;;;8.80;5.50;;;;;;;;;;107940;1254;61249;-79
2023/07/24 07:09:42;;;;;;;6.10;4.20;;;;;;;;;;107603;1256;150887;-80
2023/07/24 07:12:08;;;;;;;7.90;4.90;;;;;;;;;;107745;1250;59615;-80
2023/07/24 07:14:35;;;;;;;12.30;5.90;;;;;;;;;;107804;1249;61251;-80
2023/07/24 07:17:01;;;;;;;8.50;5.50;;;;;;;;;;107790;1253;61775;-80
2023/07/24 07:19:28;;;;;;;10.00;5.90;;;;;;;;;;107752;1250;61333;-80
2023/07/24 07:21:54;;;;;;;11.10;6.20;;;;;;;;;;107678;1250;61370;-80
2023/07/24 07:24:21;;;;;;;11.80;8.00;;;;;;;;;;107607;1253;61257;-80
2023/07/24 07:26:47;;;;;;;11.20;6.40;;;;;;;;;;107660;1249;61323;-79
2023/07/24 07:29:13;;;;;;;10.00;6.00;;;;;;;;;;107821;1250;61231;-79
2023/07/24 07:31:40;;;;;;;11.10;6.40;;;;;;;;;;107668;1250;61320;-80
2023/07/24 07:34:06;;;;;;;9.50;6.30;;;;;;;;;;107712;1250;61324;-80
2023/07/24 07:36:33;;;;;;;15.10;6.20;;;;;;;;;;107712;1254;61218;-79
2023/07/24 07:39:00;;;;;;;10.50;6.10;;;;;;;;;;109368;1249;59614;-80
2023/07/24 07:41:26;;;;;;;8.80;5.80;;;;;;;;;;107893;1250;59535;-80
2023/07/24 07:43:53;;;;;;;11.20;6.00;;;;;;;;;;107654;1253;61299;-80
2023/07/24 07:46:19;;;;;;;8.00;5.90;;;;;;;;;;107741;1252;61350;-80
2023/07/24 07:48:49;;;;;;;8.40;6.10;;;;;;;;;;107715;1250;61203;-80
2023/07/24 07:51:15;;;;;;;8.70;5.70;;;;;;;;;;107765;1250;61014;-80
2023/07/24 07:53:42;;;;;;;6.20;5.30;;;;;;;;;;107655;1253;61176;-80
2023/07/24 07:56:08;;;;;;;11.80;5.00;;;;;;;;;;107786;1249;61216;-80
2023/07/24 07:58:34;;;;;;;9.70;5.80;;;;;;;;;;107840;1255;62966;-81
2023/07/24 08:01:05;;;;;;;9.30;6.60;;;;;;;;;;107695;1253;61219;-80
2023/07/24 08:03:31;;;;;;;10.50;6.20;;;;;;;;;;107744;1250;61228;-80
2023/07/24 08:05:58;;;;;;;10.00;5.90;;;;;;;;;;107641;1249;61318;-80
2023/07/24 08:08:24;;;;;;;10.20;6.30;;;;;;;;;;107584;1249;59596;-80
2023/07/24 08:10:51;;;;;;;6.80;5.40;;;;;;;;;;107779;1253;61324;-80
2023/07/24 08:13:17;;;;;;;6.50;5.40;;;;;;;;;;107473;1253;61277;-80
2023/07/24 08:15:43;;;;;;;7.80;5.20;;;;;;;;;;107479;1250;61328;-80
2023/07/24 08:18:10;;;;;;;6.80;5.10;;;;;;;;;;107529;1253;61365;-80
2023/07/24 08:20:36;;;;;;;6.40;5.10;;;;;;;;;;107515;1254;59181;-80
2023/07/24 08:23:03;;;;;;;9.00;6.10;;;;;;;;;;107541;1250;61137;-80
2023/07/24 08:25:29;;;;;;;6.50;4.60;;;;;;;;;;107473;1254;61237;-80
2023/07/24 08:27:56;;;;;;;6.80;5.50;;;;;;;;;;107613;1250;61260;-80
2023/07/24 08:30:22;;;;;;;6.00;4.50;;;;;;;;;;107595;1250;61410;-80
2023/07/24 08:32:51;;;;;;;7.40;5.10;;;;;;;;;;107411;1249;61265;-79
2023/07/24 08:35:17;;;;;;;9.60;5.40;;;;;;;;;;107722;1254;61302;-80
2023/07/24 08:37:44;;;;;;;9.00;5.40;;;;;;;;;;107891;1250;59496;-81
2023/07/24 08:40:10;;;;;;;5.80;5.00;;;;;;;;;;107874;1250;61180;-80
2023/07/24 08:42:40;;;;;;;6.80;5.50;;;;;;;;;;107918;1249;61242;-80
2023/07/24 08:45:15;;;;;;;10.20;5.60;;;;;;;;;;107687;1255;61218;-81
2023/07/24 08:47:44;;;;;;;6.80;5.50;;;;;;;;;;107694;1251;62040;-80
2023/07/24 08:50:15;;;;;;;13.40;5.60;;;;;;;;;;107524;1253;61200;-79
2023/07/24 08:52:42;;;;;;;5.70;5.10;;;;;;;;;;107481;1250;61257;-81
2023/07/24 08:55:09;;;;;;;6.20;5.10;;;;;;;;;;107500;1253;61827;-80
2023/07/24 08:57:36;;;;;;;8.50;5.20;;;;;;;;;;107705;1254;61201;-80
2023/07/24 09:00:04;;;;;;;8.40;5.70;;;;;;;;;;107428;1255;61429;-80
2023/07/24 09:02:32;;;;;;;6.10;4.80;;;;;;;;;;107371;1250;61251;-81
2023/07/24 09:04:59;;;;;;;8.10;5.30;;;;;;;;;;108020;1251;61242;-81
2023/07/24 09:07:25;;;;;;;7.20;5.90;;;;;;;;;;107435;1254;61253;-81
2023/07/24 09:09:52;;;;;;;9.10;6.10;;;;;;;;;;107818;1251;61251;-80
2023/07/24 09:12:19;;;;;;;6.80;5.50;;;;;;;;;;107672;1254;61232;-80
2023/07/24 09:14:45;;;;;;;6.90;5.80;;;;;;;;;;107621;1254;61313;-80
2023/07/24 09:17:12;;;;;;;7.30;5.70;;;;;;;;;;107776;1251;61331;-80
2023/07/24 09:19:38;;;;;;;7.30;5.40;;;;;;;;;;107703;1256;61205;-80
2023/07/24 09:22:11;;;;;;;7.30;5.30;;;;;;;;;;107634;1254;61811;-80
2023/07/24 09:24:38;;;;;;;8.80;6.60;;;;;;;;;;107441;1251;61237;-80
2023/07/24 09:27:04;;;;;;;7.40;5.30;;;;;;;;;;107540;1249;61333;-80
2023/07/24 09:29:31;;;;;;;8.00;6.30;;;;;;;;;;107402;1250;61175;-80
2023/07/24 09:31:58;;;;;;;9.70;6.40;;;;;;;;;;107314;1251;61273;-79
2023/07/24 09:34:25;;;;;;;9.80;5.70;;;;;;;;;;107314;1251;61247;-80
2023/07/24 09:36:52;;;;;;;7.00;5.30;;;;;;;;;;107481;1253;60282;-80
2023/07/24 09:39:27;;;;;;;10.40;6.10;;;;;;;;;;107551;1253;61097;-80
2023/07/24 09:41:54;;;;;;;8.70;6.50;;;;;;;;;;107270;1251;61274;-80
2023/07/24 09:44:21;;;;;;;12.20;6.40;;;;;;;;;;107413;1254;61160;-80
2023/07/24 09:46:47;;;;;;;8.60;5.80;;;;;;;;;;107472;1251;61366;-80
2023/07/24 09:49:13;;;;;;;9.40;6.10;;;;;;;;;;107423;1254;61350;-80
2023/07/24 09:51:40;;;;;;;9.60;7.30;;;;;;;;;;107372;1253;59671;-80
2023/07/24 09:54:11;;;;;;;17.00;7.00;;;;;;;;;;107408;1251;61321;-80
2023/07/24 09:56:38;;;;;;;8.50;6.00;;;;;;;;;;107437;1251;61334;-79
2023/07/24 09:59:04;;;;;;;9.70;6.10;;;;;;;;;;107429;1252;61250;-80
2023/07/24 10:01:31;;;;;;;10.60;6.70;;;;;;;;;;107403;1251;61377;-80
2023/07/24 10:03:58;;;;;;;9.50;6.40;;;;;;;;;;107352;1263;61179;-79
2023/07/24 10:06:24;;;;;;;8.60;6.80;;;;;;;;;;107430;1252;60808;-80
2023/07/24 10:08:51;;;;;;;9.30;6.60;;;;;;;;;;107528;1251;61118;-80
2023/07/24 10:11:17;;;;;;;11.00;7.10;;;;;;;;;;107344;1254;62283;-80
2023/07/24 10:13:43;;;;;;;9.70;6.60;;;;;;;;;;107370;1253;61116;-79
2023/07/24 10:16:10;;;;;;;10.30;7.10;;;;;;;;;;107352;1251;61345;-79
2023/07/24 10:18:41;;;;;;;12.60;7.20;;;;;;;;;;107499;1251;62344;-80
2023/07/24 10:21:08;;;;;;;10.00;6.30;;;;;;;;;;107409;1251;61228;-80
2023/07/24 10:23:35;;;;;;;9.70;6.40;;;;;;;;;;107367;1255;63471;-80
2023/07/24 10:26:02;;;;;;;8.80;6.80;;;;;;;;;;107562;1251;61209;-80
2023/07/24 10:28:32;;;;;;;11.10;7.40;;;;;;;;;;107526;1251;61106;-80
2023/07/24 10:30:59;;;;;;;8.80;6.30;;;;;;;;;;107374;1250;61225;-80
2023/07/24 10:33:29;;;;;;;10.80;6.90;;;;;;;;;;107353;1251;61161;-80
2023/07/24 10:36:03;;;;;;;10.90;7.30;;;;;;;;;;107406;1254;61106;-79
2023/07/24 10:38:39;;;;;;;9.00;6.70;;;;;;;;;;107578;1253;61218;-80
2023/07/24 10:41:06;;;;;;;8.10;6.10;;;;;;;;;;107518;1251;61165;-79
2023/07/24 10:43:45;;;;;;;11.60;7.20;;;;;;;;;;107422;1253;62321;-80
2023/07/24 10:46:12;;;;;;;10.00;7.00;;;;;;;;;;107482;1250;61157;-80
2023/07/24 10:48:43;;;;;;;9.60;7.00;;;;;;;;;;107509;1252;61328;-80
2023/07/24 10:51:09;;;;;;;10.60;6.70;;;;;;;;;;107476;1251;61152;-81
2023/07/24 10:53:37;;;;;;;9.10;7.70;;;;;;;;;;107415;1251;59771;-80
2023/07/24 10:56:04;;;;;;;10.30;7.40;;;;;;;;;;107481;1251;61161;-80
2023/07/24 10:58:31;;;;;;;10.20;7.70;;;;;;;;;;107939;1253;61090;-80
2023/07/24 11:00:58;;;;;;;12.30;6.90;;;;;;;;;;107710;1250;61353;-80
2023/07/24 11:03:25;;;;;;;9.10;6.60;;;;;;;;;;107786;1254;61336;-80
2023/07/24 11:05:51;;;;;;;9.50;6.80;;;;;;;;;;107637;1249;61346;-81
2023/07/24 11:08:18;;;;;;;9.90;6.90;;;;;;;;;;107578;1251;62311;-80
2023/07/24 11:10:48;;;;;;;11.00;7.60;;;;;;;;;;107672;1253;61169;-80
2023/07/24 11:13:15;;;;;;;11.40;7.10;;;;;;;;;;107612;1251;61829;-80
2023/07/24 11:15:42;;;;;;;13.00;7.10;;;;;;;;;;107705;1253;61198;-81
2023/07/24 11:18:09;;;;;;;9.60;7.80;;;;;;;;;;107772;1256;59633;-80
2023/07/24 11:20:46;;;;;;;7.80;6.90;;;;;;;;;;107883;1253;61725;-80
2023/07/24 11:23:12;;;;;;;10.60;7.20;;;;;;;;;;108183;1251;59429;-81
2023/07/24 11:25:38;;;;;;;8.00;7.00;;;;;;;;;;108097;1251;61438;-81
2023/07/24 11:28:05;;;;;;;8.20;7.20;;;;;;;;;;108280;1251;62653;-81
2023/07/24 11:30:32;;;;;;;8.20;7.30;;;;;;;;;;108118;1252;61090;-81
2023/07/24 11:33:00;;;;;;;12.20;7.50;;;;;;;;;;107832;1251;61372;-81
2023/07/24 11:35:27;;;;;;;10.70;7.90;;;;;;;;;;107937;1251;59216;-81
2023/07/24 11:37:53;;;;;;;13.90;7.80;;;;;;;;;;107805;1251;61103;-81
2023/07/24 11:40:20;;;;;;;10.70;7.30;;;;;;;;;;107735;1254;61346;-81
2023/07/24 11:42:47;;;;;;;9.00;6.60;;;;;;;;;;107687;1251;59116;-81
2023/07/24 11:45:13;;;;;;;11.50;7.90;;;;;;;;;;107665;1251;59921;-81
2023/07/24 11:47:46;;;;;;;9.60;7.50;;;;;;;;;;107874;1253;61339;-81
2023/07/24 11:50:13;;;;;;;8.70;6.70;;;;;;;;;;107692;1250;61199;-81
2023/07/24 11:52:45;;;;;;;9.60;6.40;;;;;;;;;;107783;1251;61347;-81
2023/07/24 11:55:13;;;;;;;8.70;7.50;;;;;;;;;;107602;1251;61112;-81
2023/07/24 11:57:39;;;;;;;10.40;7.30;;;;;;;;;;107972;1249;61117;-81
2023/07/24 12:00:06;;;;;;;8.60;7.00;;;;;;;;;;107764;1253;61257;-81
2023/07/24 12:02:33;;;;;;;9.40;6.30;;;;;;;;;;107558;1251;61199;-81
2023/07/24 12:05:00;;;;;;;9.30;7.90;;;;;;;;;;107720;1251;61237;-81
2023/07/24 12:07:33;;;;;;;8.70;6.60;;;;;;;;;;107779;1251;60697;-81
2023/07/24 12:10:01;;;;;;;9.60;7.30;;;;;;;;;;107757;1254;60827;-81
2023/07/24 12:12:40;;;;;;;9.40;7.20;;;;;;;;;;107603;1251;59505;-81
2023/07/24 12:15:07;;;;;;;10.70;7.30;;;;;;;;;;107572;1251;61267;-80
2023/07/24 12:17:33;;;;;;;11.90;8.30;;;;;;;;;;107702;1251;61369;-81
2023/07/24 12:19:59;;;;;;;11.40;7.80;;;;;;;;;;107589;1251;59854;-81
2023/07/24 12:22:26;;;;;;;10.60;7.90;;;;;;;;;;107600;1250;61082;-80
2023/07/24 12:24:52;;;;;;;13.10;7.30;;;;;;;;;;107580;1251;61343;-80
2023/07/24 12:27:18;;;;;;;10.10;7.40;;;;;;;;;;107825;1249;60786;-81
2023/07/24 12:29:45;;;;;;;11.30;7.80;;;;;;;;;;107603;1251;61308;-80
2023/07/24 12:32:11;;;;;;;10.00;7.80;;;;;;;;;;107619;1253;61391;-80
2023/07/24 12:34:37;;;;;;;13.70;9.20;;;;;;;;;;107594;1253;61329;-81
2023/07/24 12:37:04;;;;;;;12.40;8.50;;;;;;;;;;107703;1250;61303;-80
2023/07/24 12:39:30;;;;;;;13.70;9.20;;;;;;;;;;107605;1251;61343;-80
2023/07/24 12:41:57;;;;;;;14.60;9.70;;;;;;;;;;107538;1251;61136;-81
2023/07/24 12:44:23;;;;;;;11.20;8.40;;;;;;;;;;107635;1251;61224;-80
2023/07/24 12:46:50;;;;;;;10.80;8.00;;;;;;;;;;107646;1253;61231;-80
2023/07/24 12:49:16;;;;;;;12.60;8.50;;;;;;;;;;107693;1251;61268;-80
2023/07/24 12:51:42;;;;;;;13.50;8.10;;;;;;;;;;107630;1253;61388;-80
2023/07/24 12:54:09;;;;;;;12.10;8.40;;;;;;;;;;107772;1250;60193;-80
2023/07/24 12:56:35;;;;;;;13.30;8.10;;;;;;;;;;107676;1251;59735;-80
2023/07/24 12:59:02;;;;;;;14.70;9.50;;;;;;;;;;107627;1251;62397;-80
2023/07/24 13:01:29;;;;;;;15.10;10.40;;;;;;;;;;107824;1251;61238;-80
2023/07/24 13:03:55;;;;;;;12.70;8.20;;;;;;;;;;107767;1253;59621;-80
2023/07/24 13:06:22;;;;;;;12.40;7.20;;;;;;;;;;107645;1251;59289;-81
2023/07/24 13:08:49;;;;;;;13.30;8.10;;;;;;;;;;107757;1250;61288;-80
2023/07/24 13:11:15;;;;;;;10.40;7.60;;;;;;;;;;107666;1251;61617;-80
2023/07/24 13:13:41;;;;;;;9.00;7.00;;;;;;;;;;107713;1251;61225;-80
2023/07/24 13:16:08;;;;;;;13.90;7.90;;;;;;;;;;107593;1251;61251;-80
2023/07/24 13:18:34;;;;;;;15.40;8.40;;;;;;;;;;107770;1253;61265;-80
2023/07/24 13:21:01;;;;;;;10.10;7.70;;;;;;;;;;107742;1250;61310;-80
2023/07/24 13:23:28;;;;;;;9.80;7.40;;;;;;;;;;107692;1251;59507;-80
2023/07/24 13:25:54;;;;;;;12.80;8.30;;;;;;;;;;107528;1251;61433;-80
2023/07/24 13:28:20;;;;;;;11.30;7.70;;;;;;;;;;107846;1250;59834;-80
2023/07/24 13:30:47;;;;;;;7.80;7.00;;;;;;;;;;107368;1251;61244;-79
2023/07/24 13:33:13;;;;;;;10.30;7.50;;;;;;;;;;107372;1254;61244;-81
2023/07/24 13:35:40;;;;;;;9.80;7.80;;;;;;;;;;107325;1251;61257;-80
2023/07/24 13:38:08;;;;;;;9.60;7.30;;;;;;;;;;107585;1254;61251;-81
2023/07/24 13:40:35;;;;;;;11.90;7.10;;;;;;;;;;107344;1251;61589;-80
2023/07/24 13:43:02;;;;;;;13.70;8.20;;;;;;;;;;107548;1251;61271;-81
2023/07/24 13:45:28;;;;;;;11.90;8.50;;;;;;;;;;107307;1250;61126;-80
2023/07/24 13:47:56;;;;;;;12.20;7.80;;;;;;;;;;107248;1251;61155;-80
2023/07/24 13:50:22;;;;;;;13.40;7.60;;;;;;;;;;107265;1254;61346;-80
2023/07/24 13:52:49;;;;;;;10.70;7.80;;;;;;;;;;107204;1252;61311;-80
2023/07/24 13:55:16;;;;;;;11.50;8.70;;;;;;;;;;107229;1254;61330;-80
2023/07/24 13:57:45;;;;;;;12.00;8.60;;;;;;;;;;107312;1250;61119;-80
2023/07/24 14:00:12;;;;;;;12.60;7.50;;;;;;;;;;107170;1250;61338;-80
2023/07/24 14:02:38;;;;;;;11.10;7.80;;;;;;;;;;107283;1250;61251;-80
2023/07/24 14:05:05;;;;;;;10.30;8.00;;;;;;;;;;107180;1251;59966;-80
2023/07/24 14:07:31;;;;;;;14.00;9.30;;;;;;;;;;107237;1251;61246;-81
2023/07/24 14:09:58;;;;;;;12.50;7.80;;;;;;;;;;107205;1250;61197;-80
2023/07/24 14:12:24;;;;;;;10.60;8.10;;;;;;;;;;107207;1253;61330;-80
2023/07/24 14:14:50;;;;;;;10.50;8.90;;;;;;;;;;107424;1250;61488;-81
2023/07/24 14:17:19;;;;;;;13.30;10.90;;;;;;;;;;107766;1253;61279;-80
2023/07/24 14:19:45;;;;;;;13.70;10.30;;;;;;;;;;107399;1250;61250;-80
2023/07/24 14:22:11;;;;;;;11.00;8.70;;;;;;;;;;107406;1253;62413;-81